sensor_id;sensor_type;location;lat;lon;timestamp;temperature;humidity
63966;DHT22;50151;52.030;5.350;2022-11-20T08:30:37;-2.60;99.90
63966;DHT22;50151;52.030;5.350;2022-11-20T08:33:07;-2.50;99.90
63966;DHT22;50151;52.030;5.350;2022-11-20T08:35:35;-2.50;99.90
63966;DHT22;50151;52.030;5.350;2022-11-20T08:38:04;-2.40;99.90
63966;DHT22;50151;52.030;5.350;2022-11-20T08:40:31;-2.30;99.90
63966;DHT22;50151;52.030;5.350;2022-11-20T08:42:58;-2.30;99.90
63966;DHT22;50151;52.030;5.350;2022-11-20T08:45:25;-2.20;99.90
63966;DHT22;50151;52.030;5.350;2022-11-20T08:48:02;-2.20;99.90
63966;DHT22;50151;52.030;5.350;2022-11-20T08:50:30;-2.10;99.90
63966;DHT22;50151;52.030;5.350;2022-11-20T08:53:03;-2.10;99.90
63966;DHT22;50151;52.030;5.350;2022-11-20T08:55:30;-2.00;99.90
63966;DHT22;50151;52.030;5.350;2022-11-20T08:57:57;-2.00;99.90
63966;DHT22;50151;52.030;5.350;2022-11-20T09:00:24;-1.90;99.90
63966;DHT22;50151;52.030;5.350;2022-11-20T09:02:51;-1.90;99.90
63966;DHT22;50151;52.030;5.350;2022-11-20T09:05:18;-1.90;99.90
63966;DHT22;50151;52.030;5.350;2022-11-20T09:07:45;-1.70;99.90
63966;DHT22;50151;52.030;5.350;2022-11-20T09:10:12;-1.70;99.90
63966;DHT22;50151;52.030;5.350;2022-11-20T09:12:54;-1.60;99.90
63966;DHT22;50151;52.030;5.350;2022-11-20T09:15:25;-1.60;99.90
63966;DHT22;50151;52.030;5.350;2022-11-20T09:17:52;-1.50;99.90
63966;DHT22;50151;52.030;5.350;2022-11-20T09:20:19;-1.50;99.90
63966;DHT22;50151;52.030;5.350;2022-11-20T09:22:46;-1.40;99.90
63966;DHT22;50151;52.030;5.350;2022-11-20T09:25:13;-1.30;99.90
63966;DHT22;50151;52.030;5.350;2022-11-20T09:27:40;-1.30;99.90
63966;DHT22;50151;52.030;5.350;2022-11-20T09:30:10;-1.20;99.90
63966;DHT22;50151;52.030;5.350;2022-11-20T09:32:38;-1.10;99.90
63966;DHT22;50151;52.030;5.350;2022-11-20T09:35:05;-1.10;99.90
63966;DHT22;50151;52.030;5.350;2022-11-20T09:37:32;-1.10;99.90
63966;DHT22;50151;52.030;5.350;2022-11-20T09:39:59;-1.00;99.90
63966;DHT22;50151;52.030;5.350;2022-11-20T09:42:45;-0.90;99.90
63966;DHT22;50151;52.030;5.350;2022-11-20T09:50:55;-0.70;99.90
63966;DHT22;50151;52.030;5.350;2022-11-20T09:56:10;-0.60;99.90
63966;DHT22;50151;52.030;5.350;2022-11-20T09:58:43;-0.50;99.90
63966;DHT22;50151;52.030;5.350;2022-11-20T10:01:32;-0.50;99.90
63966;DHT22;50151;52.030;5.350;2022-11-20T10:04:13;-0.40;99.90
63966;DHT22;50151;52.030;5.350;2022-11-20T10:06:50;-0.30;99.90
63966;DHT22;50151;52.030;5.350;2022-11-20T10:09:43;-0.30;99.90
63966;DHT22;50151;52.030;5.350;2022-11-20T10:15:45;-0.20;99.90
63966;DHT22;50151;52.030;5.350;2022-11-20T10:18:39;-0.10;99.90
63966;DHT22;50151;52.030;5.350;2022-11-20T10:24:21;0.00;99.90
63966;DHT22;50151;52.030;5.350;2022-11-20T10:30:03;0.10;99.90
63966;DHT22;50151;52.030;5.350;2022-11-20T10:32:34;0.20;99.90
63966;DHT22;50151;52.030;5.350;2022-11-20T10:35:38;0.20;99.90
63966;DHT22;50151;52.030;5.350;2022-11-20T10:38:24;0.30;99.90
63966;DHT22;50151;52.030;5.350;2022-11-20T10:40:56;0.30;99.90
63966;DHT22;50151;52.030;5.350;2022-11-20T10:43:48;0.30;99.90
63966;DHT22;50151;52.030;5.350;2022-11-20T10:46:19;0.40;99.90
63966;DHT22;50151;52.030;5.350;2022-11-20T10:48:48;0.40;99.90
63966;DHT22;50151;52.030;5.350;2022-11-20T10:51:33;0.50;99.90
63966;DHT22;50151;52.030;5.350;2022-11-20T10:54:11;0.60;99.90
63966;DHT22;50151;52.030;5.350;2022-11-20T10:56:51;0.70;99.90
63966;DHT22;50151;52.030;5.350;2022-11-20T11:02:15;0.80;99.90
63966;DHT22;50151;52.030;5.350;2022-11-20T11:04:52;0.90;99.90
63966;DHT22;50151;52.030;5.350;2022-11-20T11:07:31;0.90;99.90
63966;DHT22;50151;52.030;5.350;2022-11-20T11:10:00;0.90;99.90
63966;DHT22;50151;52.030;5.350;2022-11-20T11:12:28;1.00;99.90
63966;DHT22;50151;52.030;5.350;2022-11-20T11:14:56;1.10;99.90
63966;DHT22;50151;52.030;5.350;2022-11-20T11:17:32;1.10;99.90
63966;DHT22;50151;52.030;5.350;2022-11-20T11:22:59;1.20;99.90
63966;DHT22;50151;52.030;5.350;2022-11-20T11:25:31;1.20;99.90
63966;DHT22;50151;52.030;5.350;2022-11-20T11:30:42;1.30;99.90
63966;DHT22;50151;52.030;5.350;2022-11-20T11:33:20;1.30;99.90
63966;DHT22;50151;52.030;5.350;2022-11-20T11:35:58;1.30;99.90
63966;DHT22;50151;52.030;5.350;2022-11-20T11:38:36;1.30;99.90
63966;DHT22;50151;52.030;5.350;2022-11-20T11:41:05;1.40;99.90
63966;DHT22;50151;52.030;5.350;2022-11-20T11:43:35;1.40;99.90
63966;DHT22;50151;52.030;5.350;2022-11-20T11:48:56;1.50;99.90
63966;DHT22;50151;52.030;5.350;2022-11-20T11:51:28;1.50;99.90
63966;DHT22;50151;52.030;5.350;2022-11-20T11:53:58;1.50;99.90
63966;DHT22;50151;52.030;5.350;2022-11-20T11:56:26;1.60;99.90
63966;DHT22;50151;52.030;5.350;2022-11-20T11:58:57;1.60;99.90
63966;DHT22;50151;52.030;5.350;2022-11-20T12:01:45;1.60;99.90
63966;DHT22;50151;52.030;5.350;2022-11-20T12:04:44;1.70;99.90
63966;DHT22;50151;52.030;5.350;2022-11-20T12:07:20;1.80;99.90
63966;DHT22;50151;52.030;5.350;2022-11-20T12:13:04;1.90;99.90
63966;DHT22;50151;52.030;5.350;2022-11-20T12:15:34;1.90;99.90
63966;DHT22;50151;52.030;5.350;2022-11-20T12:18:01;1.90;99.90
63966;DHT22;50151;52.030;5.350;2022-11-20T12:20:40;1.90;99.90
63966;DHT22;50151;52.030;5.350;2022-11-20T12:25:43;2.00;99.90
63966;DHT22;50151;52.030;5.350;2022-11-20T12:31:35;2.00;99.90
63966;DHT22;50151;52.030;5.350;2022-11-20T12:34:42;1.90;99.90
63966;DHT22;50151;52.030;5.350;2022-11-20T12:40:35;2.00;99.90
63966;DHT22;50151;52.030;5.350;2022-11-20T12:46:21;2.10;99.90
63966;DHT22;50151;52.030;5.350;2022-11-20T12:49:07;2.10;99.90
63966;DHT22;50151;52.030;5.350;2022-11-20T12:51:51;2.10;99.90
63966;DHT22;50151;52.030;5.350;2022-11-20T12:54:26;2.10;99.90
63966;DHT22;50151;52.030;5.350;2022-11-20T12:57:10;2.10;99.90
63966;DHT22;50151;52.030;5.350;2022-11-20T13:00:00;2.20;99.90
63966;DHT22;50151;52.030;5.350;2022-11-20T13:08:00;2.30;99.90
63966;DHT22;50151;52.030;5.350;2022-11-20T13:10:55;2.30;99.90
63966;DHT22;50151;52.030;5.350;2022-11-20T13:13:41;2.40;99.90
63966;DHT22;50151;52.030;5.350;2022-11-20T13:16:44;2.40;99.90
63966;DHT22;50151;52.030;5.350;2022-11-20T13:19:15;2.40;99.90
63966;DHT22;50151;52.030;5.350;2022-11-20T13:21:44;2.40;99.90
63966;DHT22;50151;52.030;5.350;2022-11-20T13:26:46;2.40;99.90
63966;DHT22;50151;52.030;5.350;2022-11-20T13:29:19;2.40;99.90
63966;DHT22;50151;52.030;5.350;2022-11-20T13:31:47;2.50;99.90
63966;DHT22;50151;52.030;5.350;2022-11-20T13:34:25;2.50;99.90
63966;DHT22;50151;52.030;5.350;2022-11-20T13:36:57;2.50;99.90
63966;DHT22;50151;52.030;5.350;2022-11-20T13:39:32;2.50;99.90
63966;DHT22;50151;52.030;5.350;2022-11-20T13:42:20;2.50;99.90
63966;DHT22;50151;52.030;5.350;2022-11-20T13:45:01;2.50;99.90
63966;DHT22;50151;52.030;5.350;2022-11-20T13:47:28;2.50;99.90
63966;DHT22;50151;52.030;5.350;2022-11-20T13:49:57;2.50;99.90
63966;DHT22;50151;52.030;5.350;2022-11-20T13:55:12;2.50;99.90
63966;DHT22;50151;52.030;5.350;2022-11-20T13:57:53;2.50;99.90
63966;DHT22;50151;52.030;5.350;2022-11-20T14:00:24;2.50;99.90
63966;DHT22;50151;52.030;5.350;2022-11-20T14:05:36;2.50;99.90
63966;DHT22;50151;52.030;5.350;2022-11-20T14:08:06;2.60;99.90
63966;DHT22;50151;52.030;5.350;2022-11-20T14:10:38;2.50;99.90
63966;DHT22;50151;52.030;5.350;2022-11-20T14:13:19;2.50;99.90
63966;DHT22;50151;52.030;5.350;2022-11-20T14:15:46;2.50;99.90
63966;DHT22;50151;52.030;5.350;2022-11-20T14:18:18;2.50;99.90
63966;DHT22;50151;52.030;5.350;2022-11-20T14:20:46;2.50;99.90
63966;DHT22;50151;52.030;5.350;2022-11-20T14:23:24;2.50;99.90
63966;DHT22;50151;52.030;5.350;2022-11-20T14:25:55;2.60;99.90
63966;DHT22;50151;52.030;5.350;2022-11-20T14:28:26;2.60;99.90
63966;DHT22;50151;52.030;5.350;2022-11-20T14:30:54;2.60;99.90
63966;DHT22;50151;52.030;5.350;2022-11-20T14:33:22;2.60;99.90
63966;DHT22;50151;52.030;5.350;2022-11-20T14:35:55;2.60;99.90
63966;DHT22;50151;52.030;5.350;2022-11-20T14:38:26;2.60;99.90
63966;DHT22;50151;52.030;5.350;2022-11-20T14:40:53;2.60;99.90
63966;DHT22;50151;52.030;5.350;2022-11-20T14:43:25;2.60;99.90
63966;DHT22;50151;52.030;5.350;2022-11-20T14:46:00;2.60;99.90
63966;DHT22;50151;52.030;5.350;2022-11-20T14:48:32;2.70;99.90
63966;DHT22;50151;52.030;5.350;2022-11-20T14:51:00;2.70;99.90
63966;DHT22;50151;52.030;5.350;2022-11-20T14:53:27;2.60;99.90
63966;DHT22;50151;52.030;5.350;2022-11-20T14:55:58;2.60;99.90
63966;DHT22;50151;52.030;5.350;2022-11-20T14:58:31;2.50;99.90
63966;DHT22;50151;52.030;5.350;2022-11-20T15:01:01;2.60;99.90
63966;DHT22;50151;52.030;5.350;2022-11-20T15:03:46;2.50;99.90
63966;DHT22;50151;52.030;5.350;2022-11-20T15:06:13;2.60;99.90
63966;DHT22;50151;52.030;5.350;2022-11-20T15:08:51;2.50;99.90
63966;DHT22;50151;52.030;5.350;2022-11-20T15:11:22;2.50;99.90
63966;DHT22;50151;52.030;5.350;2022-11-20T15:13:50;2.50;99.90
63966;DHT22;50151;52.030;5.350;2022-11-20T15:16:19;2.60;99.90
63966;DHT22;50151;52.030;5.350;2022-11-20T15:18:46;2.50;99.90
63966;DHT22;50151;52.030;5.350;2022-11-20T15:21:15;2.50;99.90
63966;DHT22;50151;52.030;5.350;2022-11-20T15:23:43;2.50;99.90
63966;DHT22;50151;52.030;5.350;2022-11-20T15:26:11;2.50;99.90
63966;DHT22;50151;52.030;5.350;2022-11-20T15:28:46;2.50;99.90
63966;DHT22;50151;52.030;5.350;2022-11-20T15:31:17;2.50;99.90
63966;DHT22;50151;52.030;5.350;2022-11-20T15:33:44;2.50;99.90
63966;DHT22;50151;52.030;5.350;2022-11-20T15:36:14;2.50;99.90
63966;DHT22;50151;52.030;5.350;2022-11-20T15:38:40;2.50;99.90
63966;DHT22;50151;52.030;5.350;2022-11-20T15:41:07;2.50;99.90
63966;DHT22;50151;52.030;5.350;2022-11-20T15:43:34;2.50;99.90
63966;DHT22;50151;52.030;5.350;2022-11-20T15:46:04;2.50;99.90
63966;DHT22;50151;52.030;5.350;2022-11-20T15:51:46;2.50;99.90
63966;DHT22;50151;52.030;5.350;2022-11-20T15:53:54;2.50;99.90
63966;DHT22;50151;52.030;5.350;2022-11-20T15:56:20;2.50;99.90
63966;DHT22;50151;52.030;5.350;2022-11-20T15:58:47;2.50;99.90
63966;DHT22;50151;52.030;5.350;2022-11-20T16:01:17;2.60;99.90
63966;DHT22;50151;52.030;5.350;2022-11-20T16:03:45;2.60;99.90
63966;DHT22;50151;52.030;5.350;2022-11-20T16:06:12;2.60;99.90
63966;DHT22;50151;52.030;5.350;2022-11-20T16:08:39;2.60;99.90
63966;DHT22;50151;52.030;5.350;2022-11-20T16:11:05;2.70;99.90
63966;DHT22;50151;52.030;5.350;2022-11-20T16:13:32;2.70;99.90
63966;DHT22;50151;52.030;5.350;2022-11-20T16:16:23;2.70;99.90
63966;DHT22;50151;52.030;5.350;2022-11-20T16:18:50;2.70;99.90
63966;DHT22;50151;52.030;5.350;2022-11-20T16:21:17;2.70;99.90
63966;DHT22;50151;52.030;5.350;2022-11-20T16:23:44;2.70;99.90
63966;DHT22;50151;52.030;5.350;2022-11-20T16:26:15;2.80;99.90
63966;DHT22;50151;52.030;5.350;2022-11-20T16:28:43;2.80;99.90
63966;DHT22;50151;52.030;5.350;2022-11-20T16:31:16;2.80;99.90
63966;DHT22;50151;52.030;5.350;2022-11-20T16:33:48;2.80;99.90
63966;DHT22;50151;52.030;5.350;2022-11-20T16:36:15;2.80;99.90
63966;DHT22;50151;52.030;5.350;2022-11-20T16:38:41;2.80;99.90
63966;DHT22;50151;52.030;5.350;2022-11-20T16:41:09;2.80;99.90
63966;DHT22;50151;52.030;5.350;2022-11-20T16:43:45;2.90;99.90
63966;DHT22;50151;52.030;5.350;2022-11-20T16:46:13;2.80;99.90
63966;DHT22;50151;52.030;5.350;2022-11-20T16:48:40;2.90;99.90
63966;DHT22;50151;52.030;5.350;2022-11-20T16:51:11;2.90;99.90
63966;DHT22;50151;52.030;5.350;2022-11-20T16:53:38;2.90;99.90
63966;DHT22;50151;52.030;5.350;2022-11-20T16:56:12;2.90;99.90
63966;DHT22;50151;52.030;5.350;2022-11-20T16:58:39;2.90;99.90
63966;DHT22;50151;52.030;5.350;2022-11-20T17:01:09;3.00;99.90
63966;DHT22;50151;52.030;5.350;2022-11-20T17:03:37;3.00;99.90
63966;DHT22;50151;52.030;5.350;2022-11-20T17:06:15;3.00;99.90
63966;DHT22;50151;52.030;5.350;2022-11-20T17:08:42;3.00;99.90
63966;DHT22;50151;52.030;5.350;2022-11-20T17:11:11;3.00;99.90
63966;DHT22;50151;52.030;5.350;2022-11-20T17:13:38;3.00;99.90
63966;DHT22;50151;52.030;5.350;2022-11-20T17:16:11;3.10;99.90
63966;DHT22;50151;52.030;5.350;2022-11-20T17:18:38;3.10;99.90
63966;DHT22;50151;52.030;5.350;2022-11-20T17:21:05;3.10;99.90
63966;DHT22;50151;52.030;5.350;2022-11-20T17:23:37;3.10;99.90
63966;DHT22;50151;52.030;5.350;2022-11-20T17:28:44;3.10;99.90
63966;DHT22;50151;52.030;5.350;2022-11-20T17:31:16;3.10;99.90
63966;DHT22;50151;52.030;5.350;2022-11-20T17:33:45;3.10;99.90
63966;DHT22;50151;52.030;5.350;2022-11-20T17:36:14;3.10;99.90
63966;DHT22;50151;52.030;5.350;2022-11-20T17:38:41;3.10;99.90
63966;DHT22;50151;52.030;5.350;2022-11-20T17:41:10;3.10;99.90
63966;DHT22;50151;52.030;5.350;2022-11-20T17:43:37;3.20;99.90
63966;DHT22;50151;52.030;5.350;2022-11-20T17:46:05;3.20;99.90
63966;DHT22;50151;52.030;5.350;2022-11-20T17:48:33;3.20;99.90
63966;DHT22;50151;52.030;5.350;2022-11-20T17:51:01;3.20;99.90
63966;DHT22;50151;52.030;5.350;2022-11-20T17:53:32;3.20;99.90
63966;DHT22;50151;52.030;5.350;2022-11-20T17:55:59;3.20;99.90
63966;DHT22;50151;52.030;5.350;2022-11-20T17:58:52;3.20;99.90
63966;DHT22;50151;52.030;5.350;2022-11-20T18:01:19;3.20;99.90
63966;DHT22;50151;52.030;5.350;2022-11-20T18:03:46;3.20;99.90
63966;DHT22;50151;52.030;5.350;2022-11-20T18:06:15;3.20;99.90
63966;DHT22;50151;52.030;5.350;2022-11-20T18:08:42;3.20;99.90
63966;DHT22;50151;52.030;5.350;2022-11-20T18:11:23;3.20;99.90
63966;DHT22;50151;52.030;5.350;2022-11-20T18:13:54;3.20;99.90
63966;DHT22;50151;52.030;5.350;2022-11-20T18:16:46;3.20;99.90
63966;DHT22;50151;52.030;5.350;2022-11-20T18:19:16;3.20;99.90
63966;DHT22;50151;52.030;5.350;2022-11-20T18:21:43;3.20;99.90
63966;DHT22;50151;52.030;5.350;2022-11-20T18:24:09;3.20;99.90
63966;DHT22;50151;52.030;5.350;2022-11-20T18:26:36;3.20;99.90
63966;DHT22;50151;52.030;5.350;2022-11-20T18:29:10;3.20;99.90
63966;DHT22;50151;52.030;5.350;2022-11-20T18:31:37;3.20;99.90
63966;DHT22;50151;52.030;5.350;2022-11-20T18:34:04;3.20;99.90
63966;DHT22;50151;52.030;5.350;2022-11-20T18:36:32;3.30;99.90
63966;DHT22;50151;52.030;5.350;2022-11-20T18:38:59;3.30;99.90
63966;DHT22;50151;52.030;5.350;2022-11-20T18:41:28;3.20;99.90
63966;DHT22;50151;52.030;5.350;2022-11-20T18:44:19;3.20;99.90
63966;DHT22;50151;52.030;5.350;2022-11-20T18:47:06;3.20;99.90
63966;DHT22;50151;52.030;5.350;2022-11-20T18:49:43;3.20;99.90
63966;DHT22;50151;52.030;5.350;2022-11-20T18:52:27;3.30;99.90
63966;DHT22;50151;52.030;5.350;2022-11-20T18:54:55;3.20;99.90
63966;DHT22;50151;52.030;5.350;2022-11-20T18:57:24;3.20;99.90
63966;DHT22;50151;52.030;5.350;2022-11-20T18:59:52;3.20;99.90
63966;DHT22;50151;52.030;5.350;2022-11-20T19:02:20;3.20;99.90
63966;DHT22;50151;52.030;5.350;2022-11-20T19:04:47;3.20;99.90
63966;DHT22;50151;52.030;5.350;2022-11-20T19:07:14;3.20;99.90
63966;DHT22;50151;52.030;5.350;2022-11-20T19:09:43;3.20;99.90
63966;DHT22;50151;52.030;5.350;2022-11-20T19:12:11;3.20;99.90
63966;DHT22;50151;52.030;5.350;2022-11-20T19:14:38;3.20;99.90
63966;DHT22;50151;52.030;5.350;2022-11-20T19:17:05;3.20;99.90
63966;DHT22;50151;52.030;5.350;2022-11-20T19:19:33;3.20;99.90
63966;DHT22;50151;52.030;5.350;2022-11-20T19:22:00;3.10;99.90
63966;DHT22;50151;52.030;5.350;2022-11-20T19:24:27;3.20;99.90
63966;DHT22;50151;52.030;5.350;2022-11-20T19:26:54;3.20;99.90
63966;DHT22;50151;52.030;5.350;2022-11-20T19:29:23;3.10;99.90
63966;DHT22;50151;52.030;5.350;2022-11-20T19:31:52;3.10;99.90
63966;DHT22;50151;52.030;5.350;2022-11-20T19:34:18;3.10;99.90
63966;DHT22;50151;52.030;5.350;2022-11-20T19:36:45;3.10;99.90
63966;DHT22;50151;52.030;5.350;2022-11-20T19:39:12;3.00;99.90
63966;DHT22;50151;52.030;5.350;2022-11-20T19:41:40;3.10;99.90
63966;DHT22;50151;52.030;5.350;2022-11-20T19:44:13;3.10;99.90
63966;DHT22;50151;52.030;5.350;2022-11-20T19:46:41;3.10;99.90
63966;DHT22;50151;52.030;5.350;2022-11-20T19:49:10;3.00;99.90
63966;DHT22;50151;52.030;5.350;2022-11-20T19:51:42;3.10;99.90
63966;DHT22;50151;52.030;5.350;2022-11-20T19:54:09;3.10;99.90
63966;DHT22;50151;52.030;5.350;2022-11-20T19:56:35;3.10;99.90
63966;DHT22;50151;52.030;5.350;2022-11-20T19:59:02;3.10;99.90
63966;DHT22;50151;52.030;5.350;2022-11-20T20:01:30;3.10;99.90
63966;DHT22;50151;52.030;5.350;2022-11-20T20:03:58;3.00;99.90
63966;DHT22;50151;52.030;5.350;2022-11-20T20:06:32;3.00;99.90
63966;DHT22;50151;52.030;5.350;2022-11-20T20:09:02;3.10;99.90
63966;DHT22;50151;52.030;5.350;2022-11-20T20:11:30;3.10;99.90
63966;DHT22;50151;52.030;5.350;2022-11-20T20:14:02;3.00;99.90
63966;DHT22;50151;52.030;5.350;2022-11-20T20:16:33;3.10;99.90
63966;DHT22;50151;52.030;5.350;2022-11-20T20:19:02;3.00;99.90
63966;DHT22;50151;52.030;5.350;2022-11-20T20:21:30;3.10;99.90
63966;DHT22;50151;52.030;5.350;2022-11-20T20:23:57;3.10;99.90
63966;DHT22;50151;52.030;5.350;2022-11-20T20:26:26;3.00;99.90
63966;DHT22;50151;52.030;5.350;2022-11-20T20:28:53;3.00;99.90
63966;DHT22;50151;52.030;5.350;2022-11-20T20:31:24;3.10;99.90
63966;DHT22;50151;52.030;5.350;2022-11-20T20:33:52;3.10;99.90
63966;DHT22;50151;52.030;5.350;2022-11-20T20:36:20;3.10;99.90
63966;DHT22;50151;52.030;5.350;2022-11-20T20:38:50;3.10;99.90
63966;DHT22;50151;52.030;5.350;2022-11-20T20:41:19;3.10;99.90
63966;DHT22;50151;52.030;5.350;2022-11-20T20:43:46;3.10;99.90
63966;DHT22;50151;52.030;5.350;2022-11-20T20:46:32;3.10;99.90
63966;DHT22;50151;52.030;5.350;2022-11-20T20:49:00;3.10;99.90
63966;DHT22;50151;52.030;5.350;2022-11-20T20:51:26;3.20;99.90
63966;DHT22;50151;52.030;5.350;2022-11-20T20:53:53;3.10;99.90
63966;DHT22;50151;52.030;5.350;2022-11-20T20:56:20;3.10;99.90
63966;DHT22;50151;52.030;5.350;2022-11-20T20:58:47;3.10;99.90
63966;DHT22;50151;52.030;5.350;2022-11-20T21:01:15;3.10;99.90
63966;DHT22;50151;52.030;5.350;2022-11-20T21:03:42;3.10;99.90
63966;DHT22;50151;52.030;5.350;2022-11-20T21:06:10;3.10;99.90
63966;DHT22;50151;52.030;5.350;2022-11-20T21:08:37;3.10;99.90
63966;DHT22;50151;52.030;5.350;2022-11-20T21:11:10;3.10;99.90
63966;DHT22;50151;52.030;5.350;2022-11-20T21:13:38;3.10;99.90
63966;DHT22;50151;52.030;5.350;2022-11-20T21:16:05;3.10;99.90
63966;DHT22;50151;52.030;5.350;2022-11-20T21:18:32;3.20;99.90
63966;DHT22;50151;52.030;5.350;2022-11-20T21:21:00;3.10;99.90
63966;DHT22;50151;52.030;5.350;2022-11-20T21:23:51;3.20;99.90
63966;DHT22;50151;52.030;5.350;2022-11-20T21:26:19;3.20;99.90
63966;DHT22;50151;52.030;5.350;2022-11-20T21:28:46;3.20;99.90
63966;DHT22;50151;52.030;5.350;2022-11-20T21:31:15;3.20;99.90
63966;DHT22;50151;52.030;5.350;2022-11-20T21:33:44;3.20;99.90
63966;DHT22;50151;52.030;5.350;2022-11-20T21:36:13;3.10;99.90
63966;DHT22;50151;52.030;5.350;2022-11-20T21:38:40;3.20;99.90
63966;DHT22;50151;52.030;5.350;2022-11-20T21:41:09;3.20;99.90
63966;DHT22;50151;52.030;5.350;2022-11-20T21:43:36;3.10;99.90
63966;DHT22;50151;52.030;5.350;2022-11-20T21:48:32;3.10;99.90
63966;DHT22;50151;52.030;5.350;2022-11-20T21:51:04;3.10;99.90
63966;DHT22;50151;52.030;5.350;2022-11-20T21:53:32;3.20;99.90
63966;DHT22;50151;52.030;5.350;2022-11-20T21:56:00;3.10;99.90
63966;DHT22;50151;52.030;5.350;2022-11-20T21:58:27;3.10;99.90
63966;DHT22;50151;52.030;5.350;2022-11-20T22:00:54;3.20;99.90
63966;DHT22;50151;52.030;5.350;2022-11-20T22:03:21;3.20;99.90
63966;DHT22;50151;52.030;5.350;2022-11-20T22:05:55;3.20;99.90
63966;DHT22;50151;52.030;5.350;2022-11-20T22:08:26;3.20;99.90
63966;DHT22;50151;52.030;5.350;2022-11-20T22:10:57;3.10;99.90
63966;DHT22;50151;52.030;5.350;2022-11-20T22:13:25;3.10;99.90
63966;DHT22;50151;52.030;5.350;2022-11-20T22:16:11;3.20;99.90
63966;DHT22;50151;52.030;5.350;2022-11-20T22:18:43;3.20;99.90
63966;DHT22;50151;52.030;5.350;2022-11-20T22:21:11;3.20;99.90
63966;DHT22;50151;52.030;5.350;2022-11-20T22:23:40;3.20;99.90
63966;DHT22;50151;52.030;5.350;2022-11-20T22:26:09;3.20;99.90
63966;DHT22;50151;52.030;5.350;2022-11-20T22:28:37;3.20;99.90
63966;DHT22;50151;52.030;5.350;2022-11-20T22:31:06;3.20;99.90
63966;DHT22;50151;52.030;5.350;2022-11-20T22:33:34;3.20;99.90
63966;DHT22;50151;52.030;5.350;2022-11-20T22:36:03;3.20;99.90
63966;DHT22;50151;52.030;5.350;2022-11-20T22:38:30;3.20;99.90
63966;DHT22;50151;52.030;5.350;2022-11-20T22:41:12;3.20;99.90
63966;DHT22;50151;52.030;5.350;2022-11-20T22:43:41;3.20;99.90
63966;DHT22;50151;52.030;5.350;2022-11-20T22:46:15;3.20;99.90
63966;DHT22;50151;52.030;5.350;2022-11-20T22:48:48;3.20;99.90
63966;DHT22;50151;52.030;5.350;2022-11-20T22:51:16;3.20;99.90
